Terminal Aerodrome Forecast
Issued by NWS

Home | Current Version | Previous Version | Text Only | Print | Product List | Glossary On
Versions: 1 2 3 4 5 6 7 8 9 10 11 12 13
000
FTUS45 KCYS 271120
TAFAIA
TAF
KAIA 271120Z 2712/2812 06010G20KT P6SM VCSH BKN120
     FM271600 10013G24KT P6SM BKN080
     FM271900 12015G25KT P6SM VCTS BKN080CB
     FM280200 14007KT P6SM BKN080=

USA.gov is the U.S. government's official web portal to all federal, state and local government web resources and services.